Time;durP1;ratioP1;P1;durP2;ratioP2;P2;SDS_P1;SDS_P2;PMS_P1;PMS_P2;Temp;Humidity;BMP_temperature;BMP_pressure;BME280_temperature;BME280_humidity;BME280_pressure;Samples;Min_cycle;Max_cycle;Signal;HPM_P1;HPM_P2
2023/09/17 00:00:05;;;;;;;8.00;5.00;;;21.70;99.70;;;;;;4248114;27;20055;-53
2023/09/17 00:02:09;;;;;;;12.52;5.05;;;21.70;99.60;;;;;;4247843;27;20450;-53
2023/09/17 00:04:11;;;;;;;13.25;5.18;;;21.70;99.80;;;;;;4229513;28;20047;-53
2023/09/17 00:06:13;;;;;;;6.95;5.00;;;21.70;99.70;;;;;;4248037;27;20043;-53
2023/09/17 00:08:15;;;;;;;7.25;5.13;;;21.70;99.90;;;;;;4247763;27;20043;-54
2023/09/17 00:10:18;;;;;;;10.50;5.68;;;21.70;99.70;;;;;;4247928;27;20047;-53
2023/09/17 00:12:21;;;;;;;7.32;4.50;;;21.70;99.70;;;;;;4247519;27;20047;-53
2023/09/17 00:14:23;;;;;;;8.45;5.00;;;21.70;99.70;;;;;;4247830;27;20039;-53
2023/09/17 00:16:31;;;;;;;7.13;4.55;;;21.70;99.80;;;;;;4247761;27;20047;-53
2023/09/17 00:18:33;;;;;;;6.30;4.88;;;21.70;99.80;;;;;;4247746;27;20134;-53
2023/09/17 00:20:36;;;;;;;9.23;5.03;;;21.70;99.90;;;;;;4247796;27;20047;-54
2023/09/17 00:22:38;;;;;;;5.63;4.15;;;21.60;99.80;;;;;;4248102;27;20057;-53
2023/09/17 00:24:41;;;;;;;6.57;4.70;;;21.60;99.90;;;;;;4247559;27;20058;-54
2023/09/17 00:26:44;;;;;;;7.82;3.95;;;21.60;99.90;;;;;;4247409;27;20690;-53
2023/09/17 00:28:47;;;;;;;5.90;4.13;;;21.60;99.90;;;;;;4247689;27;20405;-53
2023/09/17 00:30:50;;;;;;;6.63;4.65;;;21.60;99.90;;;;;;4246614;27;20092;-54
2023/09/17 00:32:52;;;;;;;6.25;4.38;;;21.60;99.90;;;;;;4247576;27;20043;-57
2023/09/17 00:34:54;;;;;;;4.97;4.30;;;21.50;99.90;;;;;;4247500;27;20092;-52
2023/09/17 00:36:56;;;;;;;7.93;4.40;;;21.50;99.90;;;;;;4229284;28;20048;-53
2023/09/17 00:38:59;;;;;;;7.68;4.53;;;21.50;99.90;;;;;;4247307;27;20062;-54
2023/09/17 00:41:01;;;;;;;8.50;5.05;;;21.50;99.90;;;;;;4246881;27;20051;-53
2023/09/17 00:43:03;;;;;;;4.82;4.30;;;21.50;99.90;;;;;;4247224;27;20047;-54
2023/09/17 00:45:07;;;;;;;6.53;4.80;;;21.40;99.90;;;;;;4247138;27;20111;-53
2023/09/17 00:47:10;;;;;;;12.90;4.75;;;21.40;99.90;;;;;;4247303;27;20073;-52
2023/09/17 00:49:14;;;;;;;6.95;5.00;;;21.40;99.90;;;;;;4247083;27;20061;-53
2023/09/17 00:51:19;;;;;;;7.18;4.95;;;21.40;99.90;;;;;;4247441;27;20123;-53
2023/09/17 00:53:21;;;;;;;8.90;5.10;;;21.30;99.90;;;;;;4247350;27;20039;-54
2023/09/17 00:55:25;;;;;;;5.70;5.07;;;21.30;99.90;;;;;;4246994;27;20047;-54
2023/09/17 00:57:28;;;;;;;8.52;4.82;;;21.40;99.90;;;;;;4247478;27;20108;-53
2023/09/17 00:59:30;;;;;;;8.90;4.50;;;21.30;99.90;;;;;;4247223;27;20373;-53
2023/09/17 01:01:35;;;;;;;6.85;4.32;;;21.30;99.90;;;;;;4247573;27;20047;-54
2023/09/17 01:03:38;;;;;;;5.57;4.53;;;21.30;99.90;;;;;;4247652;27;20047;-52
2023/09/17 01:05:42;;;;;;;6.22;4.80;;;21.30;99.90;;;;;;4247551;27;20047;-53
2023/09/17 01:07:45;;;;;;;10.20;4.32;;;21.30;99.90;;;;;;4247040;27;20045;-53
2023/09/17 01:09:49;;;;;;;7.03;4.20;;;21.30;99.90;;;;;;4246899;27;20450;-53
2023/09/17 01:11:52;;;;;;;6.47;5.03;;;21.30;99.90;;;;;;4247210;28;20127;-52
2023/09/17 01:14:28;;;;;;;8.98;4.63;;;21.30;99.90;;;;;;4246960;28;20100;-54
2023/09/17 01:16:23;;;;;;;7.63;4.50;;;21.20;99.90;;;;;;4243149;28;20481;-53
2023/09/17 01:18:28;;;;;;;5.90;4.47;;;21.20;99.90;;;;;;4246906;28;20510;-53
2023/09/17 01:20:37;;;;;;;6.05;4.18;;;21.20;99.90;;;;;;4228675;28;20044;-52
2023/09/17 01:22:45;;;;;;;6.20;4.30;;;21.20;99.90;;;;;;4247250;28;20118;-52
2023/09/17 01:24:54;;;;;;;6.35;4.10;;;21.10;99.90;;;;;;4246684;28;20043;-54
2023/09/17 01:27:01;;;;;;;6.65;4.43;;;21.20;99.90;;;;;;4246948;28;20120;-52
2023/09/17 01:29:04;;;;;;;5.88;4.10;;;21.20;99.90;;;;;;4246960;28;20408;-52
2023/09/17 01:31:09;;;;;;;4.95;4.40;;;21.20;99.90;;;;;;4247294;28;20614;-53
2023/09/17 01:33:11;;;;;;;5.85;4.13;;;21.10;99.90;;;;;;4247020;28;20047;-52
2023/09/17 01:35:15;;;;;;;5.57;3.72;;;21.10;99.90;;;;;;4247209;28;20074;-52
2023/09/17 01:37:23;;;;;;;6.90;3.92;;;21.10;99.90;;;;;;4246905;28;20050;-54
2023/09/17 01:39:28;;;;;;;6.45;3.60;;;21.10;99.90;;;;;;4246402;28;20047;-53
2023/09/17 01:41:33;;;;;;;7.32;3.67;;;21.10;99.90;;;;;;4247465;27;20051;-52
2023/09/17 01:43:38;;;;;;;4.97;3.88;;;21.10;99.90;;;;;;4250469;27;20050;-53
2023/09/17 01:45:41;;;;;;;6.03;4.93;;;21.10;99.90;;;;;;4232073;28;20057;-53
2023/09/17 01:47:46;;;;;;;6.60;4.88;;;21.10;99.90;;;;;;4250047;27;20488;-53
2023/09/17 01:49:48;;;;;;;6.47;4.05;;;21.10;99.90;;;;;;4250005;27;20104;-52
2023/09/17 01:51:56;;;;;;;7.95;3.80;;;21.10;99.90;;;;;;4250304;27;20500;-52
2023/09/17 01:54:00;;;;;;;6.72;3.85;;;21.10;99.90;;;;;;4249977;27;20043;-53
2023/09/17 01:56:04;;;;;;;3.53;2.95;;;21.10;99.90;;;;;;4250015;27;20055;-52
2023/09/17 01:58:06;;;;;;;6.68;3.72;;;21.10;99.90;;;;;;4250093;27;20035;-54
2023/09/17 02:00:16;;;;;;;5.32;3.58;;;21.10;99.90;;;;;;4250058;27;20039;-54
2023/09/17 02:02:19;;;;;;;4.28;3.42;;;21.10;99.90;;;;;;4231617;28;20040;-55
2023/09/17 02:04:22;;;;;;;5.10;3.40;;;21.10;99.90;;;;;;4249923;27;20066;-54
2023/09/17 02:06:24;;;;;;;4.68;3.45;;;21.10;99.90;;;;;;4249620;27;20051;-54
2023/09/17 02:08:26;;;;;;;5.95;3.78;;;21.10;99.90;;;;;;4249398;27;20130;-52
2023/09/17 02:10:28;;;;;;;6.60;3.33;;;21.10;99.90;;;;;;4249763;27;20451;-53
2023/09/17 02:12:30;;;;;;;5.68;3.70;;;21.10;99.90;;;;;;4249624;27;20039;-53
2023/09/17 02:14:32;;;;;;;4.75;3.20;;;21.00;99.90;;;;;;4249976;27;20039;-53
2023/09/17 02:16:37;;;;;;;5.10;3.40;;;21.10;99.90;;;;;;4249492;27;20123;-53
2023/09/17 02:18:39;;;;;;;4.90;3.42;;;21.10;99.90;;;;;;4249866;27;20050;-53
2023/09/17 02:20:42;;;;;;;5.45;4.05;;;21.10;99.90;;;;;;4250106;27;20059;-53
2023/09/17 02:22:45;;;;;;;5.03;4.13;;;21.10;99.90;;;;;;4249490;27;20461;-53
2023/09/17 02:24:48;;;;;;;6.28;3.70;;;21.10;99.90;;;;;;4249670;27;20038;-53
2023/09/17 02:26:50;;;;;;;5.68;3.70;;;21.00;99.90;;;;;;4249848;27;20111;-53
2023/09/17 02:28:52;;;;;;;6.95;3.42;;;21.00;99.90;;;;;;4249511;27;20043;-52
2023/09/17 02:30:54;;;;;;;5.28;3.50;;;21.00;99.90;;;;;;4249766;27;20131;-54
2023/09/17 02:32:58;;;;;;;4.97;3.20;;;21.00;99.90;;;;;;4249814;27;20050;-53
2023/09/17 02:35:00;;;;;;;7.85;4.03;;;21.00;99.90;;;;;;4249584;27;20046;-53
2023/09/17 02:37:03;;;;;;;4.97;3.65;;;21.00;99.90;;;;;;4249354;27;20069;-55
2023/09/17 02:39:06;;;;;;;5.45;4.00;;;21.00;99.90;;;;;;4249496;27;20481;-57
2023/09/17 02:41:08;;;;;;;4.40;3.53;;;21.00;99.90;;;;;;4249767;27;20100;-54
2023/09/17 02:43:10;;;;;;;5.90;3.90;;;21.00;99.90;;;;;;4249507;27;20047;-52
2023/09/17 02:45:12;;;;;;;4.55;3.90;;;21.00;99.90;;;;;;4249462;27;20479;-56
2023/09/17 02:47:15;;;;;;;4.57;3.53;;;21.00;99.90;;;;;;4249081;27;20058;-53
2023/09/17 02:49:21;;;;;;;4.55;3.72;;;21.00;99.90;;;;;;4248905;27;20051;-52
2023/09/17 02:51:23;;;;;;;5.43;3.72;;;20.90;99.90;;;;;;4248891;27;20047;-53
2023/09/17 02:53:26;;;;;;;5.93;3.78;;;20.80;99.90;;;;;;4248080;27;20092;-53
2023/09/17 02:55:28;;;;;;;4.68;3.70;;;20.80;99.90;;;;;;4249025;27;20054;-53
2023/09/17 02:57:30;;;;;;;5.38;3.97;;;20.80;99.90;;;;;;4249261;27;20044;-53
2023/09/17 02:59:33;;;;;;;7.68;4.25;;;20.80;99.90;;;;;;4249191;27;20051;-53
2023/09/17 03:01:36;;;;;;;5.00;3.85;;;20.80;99.90;;;;;;4248940;27;20043;-53
2023/09/17 03:03:38;;;;;;;5.15;3.83;;;20.80;99.90;;;;;;4249169;27;20050;-53
2023/09/17 03:05:45;;;;;;;5.30;3.58;;;20.80;99.90;;;;;;4248813;27;20035;-52
2023/09/17 03:07:48;;;;;;;5.47;3.88;;;20.80;99.90;;;;;;4249067;27;20499;-53
2023/09/17 03:09:50;;;;;;;5.63;3.78;;;20.80;99.90;;;;;;4248872;27;20074;-53
2023/09/17 03:11:52;;;;;;;6.97;4.20;;;20.70;99.90;;;;;;4249469;27;20482;-53
2023/09/17 03:13:55;;;;;;;4.90;3.78;;;20.80;99.90;;;;;;4231184;28;20062;-58
2023/09/17 03:15:58;;;;;;;5.65;3.90;;;20.80;99.90;;;;;;4249451;27;20054;-53
2023/09/17 03:18:00;;;;;;;9.13;4.10;;;20.80;99.90;;;;;;4249363;27;20039;-52
2023/09/17 03:20:13;;;;;;;6.10;3.95;;;20.80;99.90;;;;;;4230137;28;20112;-52
2023/09/17 03:22:17;;;;;;;9.25;4.50;;;20.80;99.90;;;;;;4248511;27;20545;-53
2023/09/17 03:24:19;;;;;;;7.93;4.32;;;20.80;99.90;;;;;;4248501;27;20043;-52
2023/09/17 03:26:22;;;;;;;5.75;3.75;;;20.80;99.90;;;;;;4248335;27;20070;-53
2023/09/17 03:28:24;;;;;;;6.78;4.20;;;20.80;99.90;;;;;;4248538;27;20051;-52
2023/09/17 03:30:27;;;;;;;5.57;4.15;;;20.80;99.90;;;;;;4248652;27;20103;-53
2023/09/17 03:32:29;;;;;;;4.55;3.63;;;20.80;99.90;;;;;;4248258;27;20442;-53
2023/09/17 03:34:32;;;;;;;6.05;3.90;;;20.80;99.90;;;;;;4248011;27;20047;-53
2023/09/17 03:36:37;;;;;;;9.70;3.88;;;20.70;99.90;;;;;;4248548;27;20456;-53
2023/09/17 03:38:41;;;;;;;7.55;3.80;;;20.80;99.90;;;;;;4248537;27;20074;-53
2023/09/17 03:40:43;;;;;;;5.63;3.60;;;20.70;99.90;;;;;;4248474;27;20473;-53
2023/09/17 03:42:47;;;;;;;4.60;3.70;;;20.70;99.90;;;;;;4248361;27;20401;-53
2023/09/17 03:44:49;;;;;;;8.40;4.13;;;20.70;99.90;;;;;;4248129;27;20038;-53
2023/09/17 03:46:51;;;;;;;5.65;4.00;;;20.70;99.90;;;;;;4248106;27;20043;-53
2023/09/17 03:48:53;;;;;;;5.90;3.90;;;20.70;99.90;;;;;;4248072;27;20047;-53
2023/09/17 03:50:56;;;;;;;5.40;3.70;;;20.70;99.90;;;;;;4247783;27;20043;-53
2023/09/17 03:53:01;;;;;;;5.82;4.10;;;20.70;99.90;;;;;;4248168;27;20134;-53
2023/09/17 03:55:05;;;;;;;5.82;4.22;;;20.70;99.90;;;;;;4248232;27;20488;-53
2023/09/17 03:57:08;;;;;;;5.30;3.85;;;20.60;99.90;;;;;;4248011;27;20611;-53
2023/09/17 03:59:11;;;;;;;7.90;3.58;;;20.60;99.90;;;;;;4248118;27;20460;-52
2023/09/17 04:01:14;;;;;;;5.65;3.90;;;20.70;99.90;;;;;;4247797;27;20043;-52
2023/09/17 04:03:18;;;;;;;4.72;3.45;;;20.60;99.90;;;;;;4248039;27;20039;-53
2023/09/17 04:05:21;;;;;;;5.55;3.65;;;20.70;99.90;;;;;;4247426;27;20121;-53
2023/09/17 04:07:23;;;;;;;5.85;3.60;;;20.70;99.90;;;;;;4247722;27;20043;-53
2023/09/17 04:09:26;;;;;;;5.70;3.50;;;20.70;99.90;;;;;;4247867;27;20047;-53
2023/09/17 04:11:29;;;;;;;4.78;4.10;;;20.60;99.90;;;;;;4247765;27;20541;-53
2023/09/17 04:13:31;;;;;;;6.47;3.92;;;20.60;99.90;;;;;;4247920;27;20122;-53
2023/09/17 04:15:35;;;;;;;4.53;3.67;;;20.60;99.90;;;;;;4247857;27;20100;-54
2023/09/17 04:17:37;;;;;;;6.03;4.53;;;20.60;99.90;;;;;;4247441;27;20043;-53
2023/09/17 04:19:39;;;;;;;5.18;4.30;;;20.60;99.90;;;;;;4247463;27;20473;-54
2023/09/17 04:21:41;;;;;;;7.07;3.90;;;20.60;99.90;;;;;;4247651;27;20047;-52
2023/09/17 04:23:44;;;;;;;4.93;3.83;;;20.60;99.90;;;;;;4229369;28;20421;-53
2023/09/17 04:25:46;;;;;;;6.15;4.00;;;20.60;99.90;;;;;;4247674;27;20506;-53
2023/09/17 04:27:51;;;;;;;6.68;4.00;;;20.60;99.90;;;;;;4247550;27;20103;-54
2023/09/17 04:29:53;;;;;;;4.80;3.88;;;20.60;99.90;;;;;;4229240;28;20051;-53
2023/09/17 04:31:55;;;;;;;8.63;4.57;;;20.50;99.90;;;;;;4247747;27;20442;-53
2023/09/17 04:33:58;;;;;;;9.05;4.70;;;20.60;99.90;;;;;;4247260;27;20413;-53
2023/09/17 04:36:00;;;;;;;8.68;4.22;;;20.50;99.90;;;;;;4247610;27;20043;-53
2023/09/17 04:38:04;;;;;;;4.72;4.20;;;20.50;99.90;;;;;;4247441;27;20389;-53
2023/09/17 04:40:11;;;;;;;5.45;4.18;;;20.50;99.90;;;;;;4229413;28;20048;-53
2023/09/17 04:42:13;;;;;;;4.50;4.07;;;20.40;99.90;;;;;;4247690;27;20071;-53
2023/09/17 04:44:17;;;;;;;5.70;4.38;;;20.40;99.90;;;;;;4247313;27;20053;-55
2023/09/17 04:46:19;;;;;;;5.10;4.20;;;20.40;99.90;;;;;;4247679;27;20051;-54
2023/09/17 04:48:21;;;;;;;9.07;4.55;;;20.40;99.90;;;;;;4246926;27;20047;-53
2023/09/17 04:50:23;;;;;;;6.88;4.22;;;20.40;99.90;;;;;;4247389;27;20107;-54
2023/09/17 04:52:26;;;;;;;4.22;3.78;;;20.40;99.90;;;;;;4247383;27;20498;-53
2023/09/17 04:54:28;;;;;;;5.13;4.35;;;20.40;99.90;;;;;;4247203;27;20047;-53
2023/09/17 04:56:30;;;;;;;6.32;4.03;;;20.40;99.90;;;;;;4247096;27;20047;-53
2023/09/17 04:58:33;;;;;;;7.43;4.03;;;20.40;99.90;;;;;;4247037;27;20063;-53
2023/09/17 05:00:37;;;;;;;4.13;3.63;;;20.40;99.90;;;;;;4247046;27;20051;-53
2023/09/17 05:02:39;;;;;;;8.10;3.92;;;20.40;99.90;;;;;;4246731;27;20039;-54
2023/09/17 05:04:42;;;;;;;5.63;3.97;;;20.40;99.90;;;;;;4247384;27;20119;-53
2023/09/17 05:06:44;;;;;;;5.10;3.78;;;20.40;99.90;;;;;;4246075;27;20164;-52
2023/09/17 05:08:46;;;;;;;9.63;4.75;;;20.30;99.90;;;;;;4246965;27;20120;-53
2023/09/17 05:10:49;;;;;;;9.93;3.78;;;20.30;99.90;;;;;;4247066;28;20047;-54
2023/09/17 05:12:51;;;;;;;8.00;4.35;;;20.30;99.90;;;;;;4246958;27;20043;-54
2023/09/17 05:14:53;;;;;;;5.47;4.10;;;20.40;99.90;;;;;;4228764;28;20414;-53
2023/09/17 05:16:57;;;;;;;6.75;3.90;;;20.30;99.90;;;;;;4246138;27;20070;-54
2023/09/17 05:18:59;;;;;;;10.10;4.20;;;20.30;99.90;;;;;;4246851;28;20047;-54
2023/09/17 05:21:01;;;;;;;8.52;4.10;;;20.30;99.90;;;;;;4247170;28;20095;-52
2023/09/17 05:23:03;;;;;;;7.32;4.20;;;20.30;99.90;;;;;;4247005;28;20043;-53
2023/09/17 05:25:08;;;;;;;6.60;3.92;;;20.30;99.90;;;;;;4247038;28;20043;-53
2023/09/17 05:27:10;;;;;;;7.13;4.40;;;20.30;99.90;;;;;;4247296;28;20486;-53
2023/09/17 05:29:16;;;;;;;9.73;5.10;;;20.20;99.90;;;;;;4246830;28;20055;-53
2023/09/17 05:31:18;;;;;;;7.80;3.88;;;20.20;99.90;;;;;;4246598;28;20043;-54
2023/09/17 05:33:23;;;;;;;6.47;3.80;;;20.10;99.90;;;;;;4247104;28;20163;-54
2023/09/17 05:35:25;;;;;;;4.80;3.85;;;20.20;99.90;;;;;;4228814;28;20399;-52
2023/09/17 05:37:27;;;;;;;7.30;3.88;;;20.10;99.90;;;;;;4246980;28;20496;-51
2023/09/17 05:39:34;;;;;;;4.80;3.88;;;20.10;99.90;;;;;;4246653;28;20047;-54
2023/09/17 05:41:37;;;;;;;5.32;3.70;;;20.10;99.90;;;;;;4246865;28;20084;-53
2023/09/17 05:43:40;;;;;;;7.78;4.13;;;20.10;99.90;;;;;;4246925;28;20054;-53
2023/09/17 05:45:42;;;;;;;4.93;3.80;;;20.10;99.90;;;;;;4246215;28;20043;-53
2023/09/17 05:47:45;;;;;;;6.88;3.70;;;20.10;99.90;;;;;;4246728;28;20047;-52
2023/09/17 05:49:50;;;;;;;;;;;20.10;99.90;;;;;;4229200;28;20043;-53
2023/09/17 05:51:53;;;;;;;6.97;3.55;;;20.10;99.90;;;;;;4246793;28;20254;-54
2023/09/17 05:53:55;;;;;;;5.25;3.30;;;20.00;99.90;;;;;;4246847;28;20668;-52
2023/09/17 05:55:57;;;;;;;4.75;3.78;;;20.00;99.90;;;;;;4246791;28;20100;-53
2023/09/17 05:58:00;;;;;;;5.38;3.88;;;20.10;99.90;;;;;;4246569;28;20047;-53
2023/09/17 06:00:03;;;;;;;7.32;3.90;;;20.10;99.90;;;;;;4246411;28;20044;-53
2023/09/17 06:02:06;;;;;;;7.15;3.70;;;20.10;99.90;;;;;;4246815;28;20122;-53
2023/09/17 06:04:08;;;;;;;6.97;4.38;;;20.10;99.90;;;;;;4246642;28;20040;-53
2023/09/17 06:06:11;;;;;;;7.63;3.45;;;20.10;99.90;;;;;;4246819;28;20088;-54
2023/09/17 06:08:14;;;;;;;5.20;3.63;;;20.10;99.90;;;;;;4228159;28;20073;-53
2023/09/17 06:10:16;;;;;;;3.85;3.20;;;20.10;99.90;;;;;;4246806;28;20039;-53
2023/09/17 06:12:18;;;;;;;5.00;3.45;;;20.20;99.90;;;;;;4246855;28;20404;-53
2023/09/17 06:14:20;;;;;;;5.70;3.40;;;20.20;99.90;;;;;;4228067;28;20048;-53
2023/09/17 06:16:22;;;;;;;5.20;3.35;;;20.20;99.90;;;;;;4246623;28;20076;-53
2023/09/17 06:18:25;;;;;;;5.25;3.33;;;20.20;99.90;;;;;;4246386;28;20051;-55
2023/09/17 06:20:28;;;;;;;4.43;3.15;;;20.20;99.90;;;;;;4246797;28;20146;-53
2023/09/17 06:22:32;;;;;;;4.97;3.00;;;20.20;99.90;;;;;;4246584;28;20043;-54
2023/09/17 06:24:34;;;;;;;5.75;3.03;;;20.20;99.90;;;;;;4246761;28;20050;-54
2023/09/17 06:26:36;;;;;;;6.15;2.83;;;20.20;99.90;;;;;;4246641;28;20097;-54
2023/09/17 06:28:39;;;;;;;5.10;3.20;;;20.20;99.90;;;;;;4246936;27;20051;-53
2023/09/17 06:30:42;;;;;;;4.95;3.08;;;20.30;99.90;;;;;;4249709;27;20111;-53
2023/09/17 06:32:44;;;;;;;4.72;3.50;;;20.30;99.90;;;;;;4249807;27;20051;-53
2023/09/17 06:34:46;;;;;;;6.32;3.28;;;20.30;99.90;;;;;;4249471;27;20526;-53
2023/09/17 06:36:48;;;;;;;5.53;3.03;;;20.30;99.90;;;;;;4249470;27;20075;-54
2023/09/17 06:38:52;;;;;;;3.95;2.70;;;20.30;99.90;;;;;;4231181;28;20054;-54
2023/09/17 06:40:54;;;;;;;3.97;3.35;;;20.40;99.90;;;;;;4231408;28;20077;-53
2023/09/17 06:42:56;;;;;;;4.93;2.90;;;20.40;99.90;;;;;;4249471;27;20066;-53
2023/09/17 06:44:58;;;;;;;4.20;3.10;;;20.40;99.90;;;;;;4249195;27;20136;-53
2023/09/17 06:47:00;;;;;;;4.55;3.10;;;20.40;99.90;;;;;;4249453;27;20080;-54
2023/09/17 06:49:03;;;;;;;5.47;3.35;;;20.40;99.90;;;;;;4249083;27;20062;-53
2023/09/17 06:51:06;;;;;;;4.97;3.08;;;20.50;99.90;;;;;;4249139;27;20043;-54
2023/09/17 06:53:08;;;;;;;5.88;2.85;;;20.60;99.90;;;;;;4249458;27;20103;-61
2023/09/17 06:55:11;;;;;;;7.65;3.17;;;20.60;99.90;;;;;;4249177;27;20051;-55
2023/09/17 06:57:14;;;;;;;5.90;3.60;;;20.60;99.90;;;;;;4249365;27;20111;-53
2023/09/17 06:59:16;;;;;;;4.35;3.10;;;20.60;99.90;;;;;;4248888;27;20126;-55
2023/09/17 07:01:18;;;;;;;5.13;3.00;;;20.70;99.90;;;;;;4249001;27;20051;-53
2023/09/17 07:03:21;;;;;;;5.65;2.90;;;20.70;99.90;;;;;;4248937;27;20466;-53
2023/09/17 07:05:23;;;;;;;4.60;2.90;;;20.80;99.90;;;;;;4248951;27;20055;-53
2023/09/17 07:07:26;;;;;;;3.85;2.78;;;20.80;99.90;;;;;;4248801;27;20043;-53
2023/09/17 07:09:29;;;;;;;3.72;2.67;;;20.80;99.90;;;;;;4248771;27;20047;-52
2023/09/17 07:11:33;;;;;;;8.18;3.20;;;20.90;99.90;;;;;;4248869;27;20043;-53
2023/09/17 07:13:35;;;;;;;4.63;2.70;;;20.90;99.90;;;;;;4248720;27;20403;-53
2023/09/17 07:15:37;;;;;;;3.75;2.60;;;20.90;99.90;;;;;;4248977;27;20043;-53
2023/09/17 07:17:39;;;;;;;5.93;2.92;;;20.90;99.90;;;;;;4248909;27;20051;-54
2023/09/17 07:19:42;;;;;;;5.18;2.72;;;21.00;99.90;;;;;;4248880;27;20392;-53
2023/09/17 07:21:44;;;;;;;4.47;2.72;;;21.00;99.90;;;;;;4248787;27;20499;-55
2023/09/17 07:23:50;;;;;;;4.10;2.83;;;21.00;99.90;;;;;;4248726;27;20039;-52
2023/09/17 07:25:52;;;;;;;4.00;2.50;;;21.00;99.90;;;;;;4248790;27;20070;-53
2023/09/17 07:27:56;;;;;;;4.55;2.72;;;21.00;99.90;;;;;;4248093;27;20043;-53
2023/09/17 07:30:00;;;;;;;4.00;2.50;;;21.00;99.90;;;;;;4248197;27;20050;-52
2023/09/17 07:32:03;;;;;;;5.32;2.90;;;21.00;99.90;;;;;;4248719;27;20422;-53
2023/09/17 07:34:05;;;;;;;4.65;2.97;;;21.00;99.90;;;;;;4248309;27;20047;-53
2023/09/17 07:36:07;;;;;;;4.55;3.20;;;21.00;99.90;;;;;;4248548;27;20516;-54
2023/09/17 07:38:10;;;;;;;6.85;3.00;;;21.00;99.90;;;;;;4248342;27;20047;-55
2023/09/17 07:40:12;;;;;;;4.53;2.70;;;21.10;99.90;;;;;;4248022;27;20047;-53
2023/09/17 07:42:14;;;;;;;4.97;2.85;;;21.10;99.90;;;;;;4248191;27;20480;-53
2023/09/17 07:44:17;;;;;;;5.22;2.83;;;21.10;99.90;;;;;;4248445;27;20043;-53
2023/09/17 07:46:20;;;;;;;4.93;3.17;;;21.10;99.90;;;;;;4248113;27;20088;-53
2023/09/17 07:48:24;;;;;;;6.22;3.72;;;21.10;99.90;;;;;;4247799;27;20089;-54
2023/09/17 07:50:26;;;;;;;5.57;3.00;;;21.10;99.90;;;;;;4248193;27;20047;-53
2023/09/17 07:52:28;;;;;;;5.32;3.08;;;21.10;99.90;;;;;;4247891;27;20043;-53
2023/09/17 07:54:30;;;;;;;10.73;3.33;;;21.10;99.90;;;;;;4248216;27;20039;-54
2023/09/17 07:56:32;;;;;;;4.32;3.30;;;21.10;99.90;;;;;;4248134;27;20057;-53
2023/09/17 07:58:34;;;;;;;5.25;2.80;;;21.10;99.90;;;;;;4248047;27;20051;-54
2023/09/17 08:00:38;;;;;;;5.78;2.67;;;21.20;99.90;;;;;;4248387;27;20057;-53
2023/09/17 08:02:41;;;;;;;9.27;3.25;;;21.30;99.90;;;;;;4248134;27;20051;-52
2023/09/17 08:04:43;;;;;;;4.55;2.95;;;21.30;99.90;;;;;;4248103;27;20079;-53
2023/09/17 08:06:46;;;;;;;5.78;3.30;;;21.40;99.90;;;;;;4247974;27;20504;-56
2023/09/17 08:08:49;;;;;;;4.18;2.95;;;21.50;99.90;;;;;;4247807;27;20061;-53
2023/09/17 08:10:51;;;;;;;5.18;3.30;;;21.60;99.90;;;;;;4247517;27;20044;-53
2023/09/17 08:12:53;;;;;;;3.17;2.85;;;21.80;99.90;;;;;;4247811;27;20047;-53
2023/09/17 08:14:56;;;;;;;4.05;3.13;;;21.80;99.90;;;;;;4247985;27;20043;-53
2023/09/17 08:16:59;;;;;;;5.10;2.95;;;21.90;99.90;;;;;;4247680;27;20047;-53
2023/09/17 08:19:01;;;;;;;7.72;2.97;;;22.10;99.90;;;;;;4247912;27;20100;-53
2023/09/17 08:21:04;;;;;;;4.95;3.47;;;22.10;99.90;;;;;;4247856;27;20043;-53
2023/09/17 08:23:06;;;;;;;7.40;3.72;;;22.10;99.90;;;;;;4247472;27;20118;-55
2023/09/17 08:25:08;;;;;;;4.45;3.40;;;22.20;99.90;;;;;;4247248;27;20053;-53
2023/09/17 08:27:14;;;;;;;6.53;3.70;;;22.30;99.90;;;;;;4247800;27;20051;-53
2023/09/17 08:29:16;;;;;;;4.82;3.55;;;22.40;99.90;;;;;;4229273;28;20478;-54
2023/09/17 08:31:19;;;;;;;6.22;3.42;;;22.40;99.90;;;;;;4247631;27;20407;-53
2023/09/17 08:33:22;;;;;;;5.30;3.45;;;22.40;99.90;;;;;;4247491;27;20046;-53
2023/09/17 08:35:25;;;;;;;7.57;3.35;;;22.40;99.90;;;;;;4247613;27;20039;-53
2023/09/17 08:37:27;;;;;;;5.97;3.03;;;22.40;99.90;;;;;;4247791;27;20126;-56
2023/09/17 08:39:30;;;;;;;6.30;3.22;;;22.40;99.90;;;;;;4247061;27;20054;-53
2023/09/17 08:41:34;;;;;;;7.18;3.22;;;22.40;99.90;;;;;;4247673;27;20092;-53
2023/09/17 08:43:39;;;;;;;6.55;2.90;;;22.50;99.90;;;;;;4247342;27;20046;-52
2023/09/17 08:45:41;;;;;;;7.05;3.25;;;22.50;99.90;;;;;;4247504;27;20422;-54
2023/09/17 08:47:44;;;;;;;8.52;3.17;;;22.50;99.90;;;;;;4247234;27;20046;-53
2023/09/17 08:49:48;;;;;;;7.75;2.60;;;22.50;99.90;;;;;;4247096;27;20057;-53
2023/09/17 08:51:52;;;;;;;5.22;2.80;;;22.50;99.90;;;;;;4246551;27;20044;-53
2023/09/17 08:54:02;;;;;;;4.78;2.75;;;22.50;99.90;;;;;;4247323;27;20074;-53
2023/09/17 08:56:06;;;;;;;6.22;3.22;;;22.60;99.80;;;;;;4247542;27;20091;-53
2023/09/17 08:58:14;;;;;;;8.38;3.22;;;22.50;99.80;;;;;;4247490;27;20058;-54
2023/09/17 09:00:21;;;;;;;6.55;2.83;;;22.60;99.80;;;;;;4247177;27;20051;-55
2023/09/17 09:02:30;;;;;;;13.68;3.15;;;22.60;99.70;;;;;;4247070;27;20084;-52
2023/09/17 09:04:34;;;;;;;6.03;2.67;;;22.60;99.70;;;;;;4247277;27;20093;-54
2023/09/17 09:06:39;;;;;;;6.82;2.92;;;22.70;99.60;;;;;;4247495;28;20043;-54
2023/09/17 09:08:43;;;;;;;6.82;2.70;;;22.70;99.70;;;;;;4247017;27;20054;-54
2023/09/17 09:10:46;;;;;;;4.30;3.42;;;22.70;99.60;;;;;;4247408;27;20134;-54
2023/09/17 09:12:49;;;;;;;4.45;3.38;;;22.70;99.70;;;;;;4247451;27;20404;-54
2023/09/17 09:14:53;;;;;;;4.25;2.67;;;22.70;99.40;;;;;;4247045;28;20079;-54
2023/09/17 09:16:55;;;;;;;6.60;3.00;;;22.70;99.40;;;;;;4247082;28;20050;-54
2023/09/17 09:18:57;;;;;;;8.48;3.13;;;22.80;99.40;;;;;;4247277;28;20381;-53
2023/09/17 09:21:00;;;;;;;6.68;3.03;;;22.90;99.40;;;;;;4246972;28;20055;-55
2023/09/17 09:23:05;;;;;;;5.15;2.78;;;23.00;99.30;;;;;;4246783;28;20084;-54
2023/09/17 09:25:09;;;;;;;3.90;2.67;;;23.10;99.10;;;;;;4247117;28;20043;-53
2023/09/17 09:27:11;;;;;;;9.98;3.05;;;23.20;98.70;;;;;;4247044;28;20103;-54
2023/09/17 09:29:14;;;;;;;3.97;2.53;;;23.30;98.90;;;;;;4228456;28;20048;-53
2023/09/17 09:31:17;;;;;;;7.13;3.10;;;23.40;98.70;;;;;;4246923;28;20047;-53
2023/09/17 09:33:21;;;;;;;5.80;2.70;;;23.50;98.50;;;;;;4246988;28;20122;-53
2023/09/17 09:35:25;;;;;;;4.55;2.53;;;23.50;98.20;;;;;;4246954;28;20476;-54
2023/09/17 09:37:27;;;;;;;5.20;2.80;;;23.50;98.20;;;;;;4246384;28;20116;-53
2023/09/17 09:39:31;;;;;;;6.20;3.30;;;23.60;98.20;;;;;;4246940;28;20054;-54
2023/09/17 09:41:33;;;;;;;3.65;2.55;;;23.60;98.00;;;;;;4246913;28;20499;-54
2023/09/17 09:43:36;;;;;;;5.15;3.00;;;23.60;97.90;;;;;;4246788;28;20039;-53
2023/09/17 09:45:40;;;;;;;4.90;2.92;;;23.60;98.10;;;;;;4246818;28;20100;-53
2023/09/17 09:47:47;;;;;;;6.63;3.35;;;23.70;98.10;;;;;;4246831;28;20122;-53
2023/09/17 09:49:50;;;;;;;6.38;3.25;;;23.70;98.10;;;;;;4246518;27;20138;-54
2023/09/17 09:51:53;;;;;;;4.80;3.28;;;23.80;98.10;;;;;;4246407;28;20433;-54
2023/09/17 09:53:55;;;;;;;4.80;2.92;;;23.80;98.00;;;;;;4246877;28;20044;-53
2023/09/17 09:55:59;;;;;;;8.00;3.17;;;23.90;97.90;;;;;;4246843;28;20104;-53
2023/09/17 09:58:02;;;;;;;8.80;3.58;;;24.00;97.80;;;;;;4247102;28;20057;-54
2023/09/17 10:00:10;;;;;;;6.07;3.30;;;24.10;97.70;;;;;;4246913;28;20043;-54
2023/09/17 10:02:15;;;;;;;6.93;3.40;;;24.20;97.50;;;;;;4246763;27;20047;-52
2023/09/17 10:04:18;;;;;;;5.13;3.53;;;24.30;97.30;;;;;;4250479;27;20495;-52
2023/09/17 10:06:20;;;;;;;7.40;2.92;;;24.30;97.00;;;;;;4249865;27;20043;-53
2023/09/17 10:08:23;;;;;;;6.80;3.30;;;24.30;97.00;;;;;;4249950;27;20042;-52
2023/09/17 10:10:25;;;;;;;9.90;3.80;;;24.40;96.80;;;;;;4231753;28;20156;-54
2023/09/17 10:12:29;;;;;;;5.32;3.55;;;24.40;96.50;;;;;;4250602;27;20130;-55
2023/09/17 10:14:38;;;;;;;4.72;3.35;;;24.40;96.70;;;;;;4249720;27;20085;-53
2023/09/17 10:16:40;;;;;;;6.03;3.63;;;24.40;96.70;;;;;;4249977;27;20080;-53
2023/09/17 10:18:45;;;;;;;4.55;3.38;;;24.50;96.50;;;;;;4250115;27;20043;-54
2023/09/17 10:20:49;;;;;;;10.25;3.55;;;24.60;96.40;;;;;;4249803;27;20450;-54
2023/09/17 10:22:53;;;;;;;5.97;3.45;;;24.60;96.40;;;;;;4249907;27;20051;-53
2023/09/17 10:24:55;;;;;;;4.68;3.20;;;24.70;96.50;;;;;;4249888;27;20040;-53
2023/09/17 10:26:59;;;;;;;5.93;3.65;;;24.70;96.60;;;;;;4249868;27;20130;-54
2023/09/17 10:29:04;;;;;;;6.28;3.70;;;24.70;96.30;;;;;;4249744;27;20051;-54
2023/09/17 10:31:07;;;;;;;9.85;4.75;;;24.50;96.10;;;;;;4249436;27;20050;-54
2023/09/17 10:33:11;;;;;;;6.70;3.72;;;24.60;96.10;;;;;;4249798;27;20055;-54
2023/09/17 10:35:14;;;;;;;8.20;4.30;;;24.70;96.20;;;;;;4249422;27;20096;-53
2023/09/17 10:37:19;;;;;;;5.70;3.90;;;24.70;96.30;;;;;;4249710;27;20381;-53
2023/09/17 10:39:26;;;;;;;6.78;4.82;;;24.70;96.10;;;;;;4231297;28;20039;-54
2023/09/17 10:41:32;;;;;;;9.27;4.38;;;24.70;96.00;;;;;;4249656;27;20193;-53